Time;durP1;ratioP1;P1;durP2;ratioP2;P2;SDS_P1;SDS_P2;PMS_P1;PMS_P2;Temp;Humidity;BMP_temperature;BMP_pressure;BME280_temperature;BME280_humidity;BME280_pressure;Samples;Min_cycle;Max_cycle;Signal;HPM_P1;HPM_P2
2023/01/25 00:00:35;;;;;;;7.72;3.92;;;;;;;0.69;67.57;102530.41;6343829;22;20022;-88
2023/01/25 00:03:45;;;;;;;6.53;3.17;;;;;;;0.84;67.58;102572.28;6317249;22;20119;-87
2023/01/25 00:06:30;;;;;;;6.07;3.03;;;;;;;0.78;67.67;102571.63;6362547;22;19999;-86
2023/01/25 00:08:57;;;;;;;6.13;2.85;;;;;;;0.80;67.12;102556.53;6292853;22;20051;-87
2023/01/25 00:16:59;;;;;;;5.80;2.80;;;;;;;0.62;66.81;102534.19;6278101;22;20026;-89
2023/01/25 00:22:14;;;;;;;6.00;2.58;;;;;;;0.91;64.82;102538.47;6250906;22;20023;-88
2023/01/25 00:25:07;;;;;;;7.07;3.17;;;;;;;0.76;65.14;102515.19;6291544;22;20014;-90
2023/01/25 00:27:39;;;;;;;7.75;3.75;;;;;;;0.79;65.52;102539.75;6308284;22;20029;-87
2023/01/25 00:33:38;;;;;;;6.15;3.00;;;;;;;0.99;64.30;102543.53;6329911;22;20026;-88
2023/01/25 00:36:41;;;;;;;6.82;2.95;;;;;;;1.10;64.29;102535.19;6325872;22;20267;-87
2023/01/25 00:39:40;;;;;;;6.15;3.00;;;;;;;1.12;64.30;102536.88;6287156;22;20023;-88
2023/01/25 00:42:33;;;;;;;5.40;2.63;;;;;;;0.96;63.88;102510.06;6305224;22;20043;-86
2023/01/25 00:45:07;;;;;;;6.05;3.03;;;;;;;0.92;62.83;102523.47;6307766;22;20008;-90
2023/01/25 00:47:46;;;;;;;6.28;3.08;;;;;;;0.55;61.99;102501.75;6277373;22;20003;-89
2023/01/25 00:50:54;;;;;;;6.22;3.13;;;;;;;0.89;61.64;102537.69;6284728;22;20019;-85
2023/01/25 00:53:45;;;;;;;5.85;3.10;;;;;;;0.67;62.33;102531.38;6311787;22;20014;-87
2023/01/25 00:56:18;;;;;;;8.45;3.75;;;;;;;0.73;62.16;102520.59;6280224;22;20011;-88
2023/01/25 00:59:24;;;;;;;8.57;3.60;;;;;;;0.62;62.42;102507.72;6293324;22;20010;-87
2023/01/25 01:02:38;;;;;;;6.65;3.35;;;;;;;0.79;62.30;102534.47;6357021;22;20025;-92
2023/01/25 01:06:15;;;;;;;5.82;3.22;;;;;;;0.70;61.54;102521.53;6360396;22;20015;-88
2023/01/25 01:11:51;;;;;;;8.48;3.40;;;;;;;0.59;61.09;102521.06;6339781;22;20017;-84
2023/01/25 01:14:33;;;;;;;7.78;3.72;;;;;;;0.58;60.84;102509.59;6263767;22;20011;-89
2023/01/25 01:16:59;;;;;;;8.60;3.97;;;;;;;0.45;61.08;102520.66;6302833;22;20098;-85
2023/01/25 01:19:46;;;;;;;7.97;3.80;;;;;;;0.47;60.78;102505.56;6287307;22;20058;-88
2023/01/25 01:22:40;;;;;;;7.63;3.78;;;;;;;0.50;61.28;102506.34;6282904;22;20034;-89
2023/01/25 01:25:25;;;;;;;9.43;3.53;;;;;;;0.42;61.26;102505.72;6304877;22;20292;-86
2023/01/25 01:27:56;;;;;;;8.07;3.88;;;;;;;0.66;60.97;102524.38;6273714;22;20006;-90
2023/01/25 01:30:22;;;;;;;8.65;3.97;;;;;;;0.66;61.20;102516.44;6301437;22;19991;-86
2023/01/25 01:32:49;;;;;;;7.78;3.83;;;;;;;0.79;60.76;102515.06;6279332;22;20046;-84
2023/01/25 01:35:15;;;;;;;6.88;3.55;;;;;;;0.63;60.66;102489.13;6299091;22;20007;-88
2023/01/25 01:38:08;;;;;;;7.78;3.80;;;;;;;0.78;60.93;102519.50;6275548;22;20018;-87
2023/01/25 01:40:35;;;;;;;8.13;3.97;;;;;;;0.70;61.05;102504.78;6330190;22;20030;-87
2023/01/25 01:43:32;;;;;;;8.00;4.10;;;;;;;0.62;61.32;102508.56;6302889;22;19999;-88
2023/01/25 01:46:24;;;;;;;7.95;4.13;;;;;;;0.47;61.38;102469.41;6298052;22;20026;-84
2023/01/25 01:49:08;;;;;;;8.05;3.70;;;;;;;0.78;61.21;102502.78;6270958;22;20057;-89
2023/01/25 01:51:47;;;;;;;7.80;4.25;;;;;;;0.79;61.18;102493.91;6271939;22;20006;-89
2023/01/25 01:55:05;;;;;;;9.05;3.78;;;;;;;0.89;60.97;102492.69;6307594;22;20014;31
2023/01/25 01:57:57;;;;;;;8.63;4.10;;;;;;;0.74;61.24;102493.19;6263528;22;20028;-86
2023/01/25 02:02:59;;;;;;;10.80;4.70;;;;;;;0.39;62.13;102455.53;6329610;22;20026;-90
2023/01/25 02:05:44;;;;;;;10.57;4.53;;;;;;;0.62;62.17;102476.81;6261843;22;20144;-88
2023/01/25 02:11:01;;;;;;;10.25;5.28;;;;;;;0.51;62.50;102481.59;6328853;22;20186;-87
2023/01/25 02:13:47;;;;;;;10.13;5.20;;;;;;;0.43;62.70;102459.81;6281832;22;20148;-88
2023/01/25 02:16:21;;;;;;;9.90;4.82;;;;;;;0.74;62.37;102493.19;6289545;22;20798;-89
2023/01/25 02:24:19;;;;;;;12.98;6.22;;;;;;;0.42;63.17;102466.00;6300125;22;20021;-84
2023/01/25 02:27:06;;;;;;;11.00;5.32;;;;;;;0.69;63.06;102481.91;6265814;22;20023;-92
2023/01/25 02:29:35;;;;;;;12.05;5.28;;;;;;;0.46;63.17;102451.78;6322882;22;20010;-88
2023/01/25 02:32:31;;;;;;;11.07;5.03;;;;;;;0.61;63.00;102469.78;6330233;22;20362;-90
2023/01/25 02:35:37;;;;;;;12.48;5.60;;;;;;;0.25;63.23;102433.97;6361244;22;20066;-88
2023/01/25 02:38:07;;;;;;;11.25;5.85;;;;;;;0.40;63.55;102470.53;6337955;22;19994;-90
2023/01/25 02:41:35;;;;;;;15.90;6.10;;;;;;;0.46;63.51;102454.41;6310923;22;20015;-83
2023/01/25 02:44:52;;;;;;;12.07;5.88;;;;;;;0.19;63.92;102457.09;6265899;22;21164;-88
2023/01/25 02:48:09;;;;;;;14.85;6.05;;;;;;;0.01;65.08;102462.97;6304289;22;20011;-87
2023/01/25 02:50:36;;;;;;;14.15;6.22;;;;;;;0.03;64.97;102452.34;6334908;22;20025;-85
2023/01/25 02:53:26;;;;;;;14.43;6.13;;;;;;;0.01;65.39;102467.38;6317729;22;20066;-88
2023/01/25 02:55:53;;;;;;;14.73;7.15;;;;;;;-0.10;65.69;102476.50;6304942;22;20017;-91
2023/01/25 02:58:39;;;;;;;15.93;6.00;;;;;;;-0.30;66.02;102444.56;6351325;22;20067;-89
2023/01/25 03:01:26;;;;;;;16.17;6.97;;;;;;;-0.27;66.05;102437.38;6330619;22;20010;-91
2023/01/25 03:04:16;;;;;;;15.60;6.60;;;;;;;0.15;65.44;102471.31;6306629;22;20045;-88
2023/01/25 03:09:58;;;;;;;14.10;6.07;;;;;;;0.08;64.99;102448.63;6360672;22;20025;-89
2023/01/25 03:12:35;;;;;;;16.63;6.75;;;;;;;0.13;65.07;102451.97;6296261;22;20021;-90
2023/01/25 03:15:00;;;;;;;14.52;6.60;;;;;;;-0.14;65.27;102434.34;6341144;22;20019;-86
2023/01/25 03:17:32;;;;;;;16.40;6.87;;;;;;;0.12;65.32;102452.06;6308465;22;20013;-88
2023/01/25 03:19:58;;;;;;;15.98;7.13;;;;;;;0.13;65.12;102454.63;6284760;22;20295;-93
2023/01/25 03:23:18;;;;;;;14.95;6.70;;;;;;;0.29;65.11;102483.25;6305402;22;19999;-90
2023/01/25 03:29:06;;;;;;;18.38;6.97;;;;;;;-0.10;66.53;102473.84;6245177;22;20027;-84
2023/01/25 03:31:33;;;;;;;19.30;7.35;;;;;;;-0.03;66.95;102478.03;6267806;22;20020;-85
2023/01/25 03:34:00;;;;;;;15.07;6.88;;;;;;;0.05;66.79;102484.88;6241517;22;19996;-86
2023/01/25 03:38:57;;;;;;;16.83;7.72;;;;;;;0.10;66.55;102457.38;6324243;22;20013;-86
2023/01/25 03:41:22;;;;;;;16.42;6.63;;;;;;;-0.15;67.87;102467.00;5647106;22;15073419;-92
2023/01/25 03:49:39;;;;;;;15.30;6.93;;;;;;;-0.16;68.27;102450.28;6300305;22;20058;-90
2023/01/25 03:57:32;;;;;;;22.52;9.57;;;;;;;-0.12;67.96;102414.00;6301024;22;20014;-87
2023/01/25 03:59:58;;;;;;;18.88;8.38;;;;;;;0.13;67.73;102454.63;6301447;22;20029;-89
2023/01/25 04:02:27;;;;;;;17.33;8.05;;;;;;;0.16;67.87;102458.94;6333720;22;20026;-85
2023/01/25 04:08:11;;;;;;;15.85;7.22;;;;;;;-0.05;68.13;102415.53;6285365;22;20082;-86
2023/01/25 04:10:54;;;;;;;18.35;7.07;;;;;;;0.02;67.92;102430.28;6311690;22;20035;-86
2023/01/25 04:13:22;;;;;;;14.95;7.47;;;;;;;-0.18;68.59;102424.81;6293903;22;20015;-88
2023/01/25 04:15:57;;;;;;;20.02;7.78;;;;;;;-0.11;69.22;102443.06;6302811;22;20184;-89
2023/01/25 04:24:25;;;;;;;17.42;7.03;;;;;;;-0.17;70.92;102437.09;6267567;22;20094;-85
2023/01/25 04:29:55;;;;;;;14.60;7.00;;;;;;;0.09;71.55;102471.50;6264592;22;20012;-87
2023/01/25 04:35:10;;;;;;;16.10;7.68;;;;;;;0.07;71.36;102446.00;6274100;22;20033;-84
2023/01/25 04:40:36;;;;;;;15.07;6.90;;;;;;;0.14;70.97;102452.84;6260278;22;20028;-86
2023/01/25 04:43:05;;;;;;;13.25;6.72;;;;;;;0.12;70.77;102426.47;6336244;22;20023;-90
2023/01/25 04:46:15;;;;;;;20.48;8.23;;;;;;;0.16;70.72;102436.03;6306831;22;20052;-89
2023/01/25 04:49:00;;;;;;;14.95;7.03;;;;;;;0.38;70.29;102457.34;6319501;22;21120;-85
2023/01/25 04:51:31;;;;;;;16.20;7.65;;;;;;;0.25;70.32;102445.41;6327618;22;20027;-91
2023/01/25 04:57:45;;;;;;;17.95;6.55;;;;;;;0.24;71.07;102459.56;6356257;22;20169;-91
2023/01/25 05:00:58;;;;;;;17.25;7.80;;;;;;;0.06;71.83;102461.03;6335599;22;20022;-87
2023/01/25 05:03:27;;;;;;;14.10;6.35;;;;;;;0.09;71.56;102444.19;6308530;22;20020;-89
2023/01/25 05:05:54;;;;;;;16.42;7.28;;;;;;;0.08;71.97;102459.19;6269065;22;20012;-87
2023/01/25 05:08:34;;;;;;;16.77;6.85;;;;;;;0.08;71.96;102458.34;6292481;22;20008;-89
2023/01/25 05:11:23;;;;;;;17.25;7.03;;;;;;;0.04;72.24;102438.19;6298169;22;19996;-88
2023/01/25 05:14:15;;;;;;;14.63;6.65;;;;;;;0.12;72.74;102466.13;6296658;22;20004;-89
2023/01/25 05:17:04;;;;;;;16.77;6.35;;;;;;;0.16;72.82;102451.91;6328316;22;20003;-86
2023/01/25 05:19:37;;;;;;;15.40;6.72;;;;;;;-0.22;73.60;102424.88;6327461;22;20031;-84
2023/01/25 05:22:16;;;;;;;14.93;5.97;;;;;;;0.12;73.57;102454.69;6329489;22;19991;-89
2023/01/25 05:24:49;;;;;;;11.05;5.38;;;;;;;-0.04;73.60;102441.94;6324036;22;20067;-88
2023/01/25 05:27:19;;;;;;;13.18;5.65;;;;;;;-0.09;73.56;102419.22;6296835;22;20015;-87
2023/01/25 05:29:48;;;;;;;12.68;5.90;;;;;;;-0.07;73.64;102428.84;6318355;22;20068;-89
2023/01/25 05:32:33;;;;;;;11.27;5.22;;;;;;;0.02;74.25;102448.81;6312522;22;20080;-83
2023/01/25 05:35:01;;;;;;;15.73;5.63;;;;;;;-0.15;74.23;102416.75;6313375;22;20000;-85
2023/01/25 05:37:28;;;;;;;11.55;5.60;;;;;;;0.10;74.42;102441.50;6311450;22;20102;-88
2023/01/25 05:39:57;;;;;;;12.02;5.55;;;;;;;-0.01;74.83;102427.75;6312198;22;19991;-88
2023/01/25 05:42:44;;;;;;;12.35;6.63;;;;;;;-0.07;74.44;102427.94;6295048;22;20019;-89
2023/01/25 05:48:21;;;;;;;14.45;6.15;;;;;;;0.21;74.44;102443.78;6302197;22;20034;-87
2023/01/25 05:51:10;;;;;;;11.65;5.43;;;;;;;0.04;74.65;102417.88;6279641;22;20024;-88
2023/01/25 05:53:37;;;;;;;13.10;5.15;;;;;;;0.09;74.38;102423.88;6269720;22;20070;-90
2023/01/25 05:56:10;;;;;;;13.73;6.50;;;;;;;0.26;74.17;102425.13;6245123;22;20010;-89
2023/01/25 05:58:37;;;;;;;12.38;5.50;;;;;;;0.37;74.62;102433.56;6293995;22;20012;-89
2023/01/25 06:01:08;;;;;;;11.25;5.80;;;;;;;0.29;74.70;102403.88;6268135;22;20055;-87
2023/01/25 06:03:39;;;;;;;11.82;5.57;;;;;;;0.35;75.50;102420.41;6237474;22;19999;-83
2023/01/25 06:06:16;;;;;;;10.45;5.35;;;;;;;0.28;75.88;102405.66;6264877;22;20080;-88
2023/01/25 06:08:48;;;;;;;10.15;5.57;;;;;;;0.29;77.07;102417.94;6257388;22;20337;-85
2023/01/25 06:11:15;;;;;;;12.85;5.85;;;;;;;0.51;77.86;102426.00;6260613;22;20487;-87
2023/01/25 06:13:41;;;;;;;12.88;6.70;;;;;;;0.55;76.14;102430.28;6212144;22;20010;-85
2023/01/25 06:16:06;;;;;;;11.25;5.78;;;;;;;0.67;75.22;102436.09;6255349;22;20047;-85
2023/01/25 06:18:32;;;;;;;10.65;5.70;;;;;;;0.34;75.84;102425.75;6255160;22;20131;-86
2023/01/25 06:20:58;;;;;;;;;;;;;;;0.45;75.99;102428.88;6232426;22;20004;-82
2023/01/25 06:23:23;;;;;;;;;;;;;;;0.39;76.62;102429.94;6277644;22;20231;-83
2023/01/25 06:25:49;;;;;;;12.43;5.50;;;;;;;0.22;76.88;102429.66;6274561;22;20304;-84
2023/01/25 06:28:15;;;;;;;13.25;5.53;;;;;;;0.22;76.98;102420.88;6221467;22;20019;-84
2023/01/25 06:30:41;;;;;;;11.07;5.20;;;;;;;0.27;76.78;102435.66;6255236;22;20063;-86
2023/01/25 06:33:07;;;;;;;12.68;5.78;;;;;;;0.24;77.46;102419.03;6259113;22;20376;-84
2023/01/25 06:35:33;;;;;;;11.85;6.05;;;;;;;0.24;77.47;102409.31;6247083;22;20004;-83
2023/01/25 06:38:03;;;;;;;10.57;5.70;;;;;;;0.18;76.86;102386.56;6247542;22;20056;-86
2023/01/25 06:40:30;;;;;;;19.90;6.90;;;;;;;0.27;77.61;102401.25;6258377;22;20026;-85
2023/01/25 06:43:09;;;;;;;13.45;5.93;;;;;;;0.36;77.64;102405.38;6280839;22;20022;-85
2023/01/25 06:45:36;;;;;;;13.77;6.68;;;;;;;0.34;77.99;102407.22;6239613;22;20015;-87
2023/01/25 06:48:03;;;;;;;13.02;6.47;;;;;;;0.35;77.87;102408.94;6287367;22;19995;-83
2023/01/25 06:50:33;;;;;;;14.45;6.40;;;;;;;0.28;78.35;102400.38;6280597;22;20141;-87
2023/01/25 06:52:58;;;;;;;13.82;7.47;;;;;;;0.34;78.65;102423.09;6261834;22;20034;-85
2023/01/25 06:55:24;;;;;;;13.13;6.23;;;;;;;0.38;79.07;102411.50;6262083;22;20008;-86
2023/01/25 06:57:50;;;;;;;13.35;6.15;;;;;;;0.34;79.07;102396.63;6262645;22;20016;-87
2023/01/25 07:00:16;;;;;;;13.80;6.53;;;;;;;0.43;79.60;102404.25;6292675;22;20082;-87
2023/01/25 07:02:42;;;;;;;16.25;6.38;;;;;;;0.45;79.56;102404.22;6296293;22;20000;-87
2023/01/25 07:05:07;;;;;;;15.57;7.43;;;;;;;0.40;80.08;102401.72;6291942;22;20072;-86
2023/01/25 07:07:33;;;;;;;16.10;7.40;;;;;;;0.41;79.53;102398.16;6297901;22;20230;-87
2023/01/25 07:10:00;;;;;;;17.80;8.18;;;;;;;0.48;79.34;102407.59;6298416;22;20050;-88
2023/01/25 07:12:30;;;;;;;13.70;6.72;;;;;;;0.51;78.83;102388.97;6263826;22;20077;-87
2023/01/25 07:15:26;;;;;;;16.42;7.47;;;;;;;0.55;78.73;102395.88;6285969;22;20007;-89
2023/01/25 07:17:54;;;;;;;16.20;7.45;;;;;;;0.57;78.00;102379.97;6273566;22;20015;-82
2023/01/25 07:20:23;;;;;;;17.13;7.32;;;;;;;0.63;78.24;102395.59;6313284;22;20035;-83
2023/01/25 07:22:51;;;;;;;14.77;7.18;;;;;;;0.78;77.90;102394.22;6313989;22;20013;-84
2023/01/25 07:25:18;;;;;;;14.85;7.05;;;;;;;0.71;77.55;102388.25;6291751;22;20064;-83
2023/01/25 07:27:43;;;;;;;14.10;6.78;;;;;;;0.93;77.20;102396.28;6317875;22;19995;-83
2023/01/25 07:30:15;;;;;;;16.80;7.77;;;;;;;0.84;77.29;102378.06;6271041;22;20056;-88
2023/01/25 07:32:44;;;;;;;18.67;7.15;;;;;;;0.88;76.98;102379.69;6350956;22;20225;-87
2023/01/25 07:35:17;;;;;;;15.98;6.88;;;;;;;0.82;77.22;102382.59;6293194;22;20171;-87
2023/01/25 07:37:43;;;;;;;15.23;7.35;;;;;;;0.90;77.13;102391.09;6296161;22;20017;-84
2023/01/25 07:40:12;;;;;;;12.95;6.25;;;;;;;0.68;77.28;102375.16;6304761;22;20007;-87
2023/01/25 07:42:41;;;;;;;12.68;6.53;;;;;;;0.84;76.62;102371.03;6356348;22;20304;-86
2023/01/25 07:45:11;;;;;;;11.88;6.00;;;;;;;0.90;76.35;102385.81;6344398;22;20022;-86
2023/01/25 07:47:49;;;;;;;14.25;6.75;;;;;;;0.98;76.54;102398.75;6352377;22;20019;-84
2023/01/25 07:50:16;;;;;;;15.00;5.72;;;;;;;0.90;76.08;102380.50;6325279;22;20006;-85
2023/01/25 07:52:42;;;;;;;12.93;6.22;;;;;;;1.03;75.67;102403.00;6297047;22;20018;-84
2023/01/25 07:55:15;;;;;;;13.90;6.30;;;;;;;0.98;75.62;102378.47;6355794;22;20037;-86
2023/01/25 07:57:40;;;;;;;14.15;6.80;;;;;;;0.92;75.88;102376.03;6360082;22;20001;-88
2023/01/25 08:00:11;;;;;;;12.20;6.15;;;;;;;1.07;75.34;102394.91;6306142;22;20007;-87
2023/01/25 08:02:37;;;;;;;13.07;6.20;;;;;;;1.13;74.79;102381.44;6298532;22;20007;-88
2023/01/25 08:05:03;;;;;;;12.67;6.10;;;;;;;1.35;74.51;102403.53;6317894;22;20041;-82
2023/01/25 08:07:33;;;;;;;10.45;5.55;;;;;;;1.38;73.95;102418.47;6315812;22;20465;-86
2023/01/25 08:09:59;;;;;;;11.55;5.25;;;;;;;1.21;74.22;102398.75;6307443;22;20003;-86
2023/01/25 08:12:28;;;;;;;11.45;5.85;;;;;;;1.47;73.82;102408.41;6308426;22;20003;-85
2023/01/25 08:14:53;;;;;;;12.02;5.90;;;;;;;1.44;73.93;102423.53;6318096;22;20074;-87
2023/01/25 08:17:18;;;;;;;14.50;6.83;;;;;;;1.63;73.72;102418.38;6284816;22;20013;-84
2023/01/25 08:19:45;;;;;;;11.27;5.80;;;;;;;1.67;72.61;102430.59;6311495;22;20213;-84
2023/01/25 08:22:13;;;;;;;11.77;6.28;;;;;;;1.67;72.80;102436.75;6314398;22;20003;-84
2023/01/25 08:24:38;;;;;;;19.25;5.85;;;;;;;1.63;73.28;102435.16;6303104;22;20398;-83
2023/01/25 08:27:04;;;;;;;13.47;5.50;;;;;;;1.82;72.91;102439.72;6285377;22;20003;-87
2023/01/25 08:29:29;;;;;;;10.85;5.00;;;;;;;1.83;72.06;102436.16;6261201;22;20275;-83
2023/01/25 08:31:55;;;;;;;11.50;4.97;;;;;;;1.88;71.96;102442.16;6315786;22;19995;-86
2023/01/25 08:34:23;;;;;;;9.88;5.15;;;;;;;1.84;72.16;102427.28;6311546;22;20003;-84
2023/01/25 08:36:50;;;;;;;11.18;5.00;;;;;;;1.84;71.99;102449.34;6285116;22;19995;-81
2023/01/25 08:39:17;;;;;;;13.65;5.30;;;;;;;1.95;71.60;102440.97;6289300;22;20008;-89
2023/01/25 08:41:44;;;;;;;15.57;5.68;;;;;;;1.93;71.28;102429.56;6288725;22;20033;-87
2023/01/25 08:44:10;;;;;;;11.73;5.80;;;;;;;1.97;71.56;102435.63;6268926;22;20045;-88
2023/01/25 08:46:36;;;;;;;13.93;4.78;;;;;;;1.88;71.15;102420.94;6292463;22;19992;-84
2023/01/25 08:49:02;;;;;;;15.18;5.20;;;;;;;2.02;71.37;102425.69;6292559;22;20112;-85
2023/01/25 08:51:30;;;;;;;11.02;5.28;;;;;;;2.05;70.84;102429.06;6291673;22;20083;-84
2023/01/25 08:53:57;;;;;;;10.77;4.88;;;;;;;2.09;70.80;102421.84;6295773;22;20003;-87
2023/01/25 08:56:26;;;;;;;11.38;4.80;;;;;;;2.09;70.68;102405.94;6297669;22;20010;-87
2023/01/25 08:58:54;;;;;;;12.25;5.72;;;;;;;2.12;70.87;102413.75;6302079;22;20007;-87
2023/01/25 09:01:28;;;;;;;12.90;5.55;;;;;;;1.97;70.61;102395.84;6277149;22;20073;-87
2023/01/25 09:03:55;;;;;;;12.90;5.55;;;;;;;2.08;70.99;102407.72;6278554;22;19999;-85
2023/01/25 09:06:22;;;;;;;11.30;4.55;;;;;;;2.16;70.50;102401.25;6271424;22;20007;-88
2023/01/25 09:08:50;;;;;;;10.05;4.75;;;;;;;2.13;70.39;102388.97;6274969;22;20011;-85
2023/01/25 09:11:21;;;;;;;9.60;5.20;;;;;;;1.94;70.79;102374.72;6279000;22;19995;-86
2023/01/25 09:13:52;;;;;;;11.43;5.00;;;;;;;2.24;70.27;102394.66;6259233;22;20011;-86
2023/01/25 09:16:41;;;;;;;15.50;5.30;;;;;;;2.09;70.21;102379.41;6324272;22;20083;-85
2023/01/25 09:19:06;;;;;;;9.27;4.70;;;;;;;2.04;70.69;102397.31;6292259;22;20023;-88
2023/01/25 09:21:32;;;;;;;9.77;4.63;;;;;;;2.01;71.02;102389.44;6294729;22;20001;-86
2023/01/25 09:24:01;;;;;;;11.13;5.32;;;;;;;2.28;70.20;102390.09;6304871;22;20253;-90
2023/01/25 09:26:39;;;;;;;14.25;6.28;;;;;;;2.45;70.13;102394.69;6305579;22;20046;-89
2023/01/25 09:29:06;;;;;;;13.18;5.80;;;;;;;2.37;69.98;102378.22;6275102;22;20019;-90
2023/01/25 09:31:33;;;;;;;14.77;6.22;;;;;;;2.43;70.01;102393.88;6275224;22;20027;-86
2023/01/25 09:33:59;;;;;;;12.90;6.10;;;;;;;2.62;69.74;102389.50;6296498;22;20018;-87
2023/01/25 09:36:26;;;;;;;13.80;5.90;;;;;;;2.70;68.83;102397.13;6272386;22;20021;-86
2023/01/25 09:38:58;;;;;;;;;;;;;;;2.66;68.42;102383.13;6297418;22;20003;-88
2023/01/25 09:42:12;;;;;;;12.43;5.13;;;;;;;2.73;68.43;102367.78;6292259;22;19926;-84
2023/01/25 09:44:41;;;;;;;12.05;5.95;;;;;;;2.62;69.10;102370.94;6306332;22;20519;-82
2023/01/25 09:47:15;;;;;;;10.20;5.45;;;;;;;2.79;68.43;102353.38;6284185;22;20011;-83
2023/01/25 09:50:05;;;;;;;8.68;4.20;;;;;;;2.87;68.01;102362.69;6302700;22;20090;-84
2023/01/25 09:52:58;;;;;;;10.95;5.88;;;;;;;2.95;67.80;102355.25;6305156;22;20007;-84
2023/01/25 09:55:43;;;;;;;11.38;5.35;;;;;;;2.93;67.57;102342.97;6228066;22;20003;-83
2023/01/25 09:58:17;;;;;;;9.27;5.35;;;;;;;2.82;67.61;102329.31;6276858;22;20011;-82
2023/01/25 10:00:44;;;;;;;10.63;5.40;;;;;;;2.94;67.62;102350.00;6276502;22;20022;-82
2023/01/25 10:03:23;;;;;;;10.05;4.97;;;;;;;2.80;68.05;102344.47;6277040;22;20011;-82
2023/01/25 10:05:50;;;;;;;10.45;5.45;;;;;;;3.02;67.61;102329.28;6276756;22;20048;-82
2023/01/25 10:08:33;;;;;;;11.77;5.30;;;;;;;3.08;67.00;102310.38;6251634;22;19999;-83
2023/01/25 10:11:24;;;;;;;13.02;6.20;;;;;;;3.37;66.47;102342.66;6250724;22;20081;-83
2023/01/25 10:13:50;;;;;;;12.20;5.07;;;;;;;3.25;66.30;102320.19;6304172;22;20055;-82
2023/01/25 10:16:26;;;;;;;11.73;5.63;;;;;;;3.49;65.66;102342.09;6282274;22;20007;-82
2023/01/25 10:19:13;;;;;;;14.27;5.15;;;;;;;3.49;65.58;102335.91;6251415;22;20088;-81
2023/01/25 10:21:56;;;;;;;9.05;4.82;;;;;;;3.50;65.40;102330.53;6275956;22;20011;-82
2023/01/25 10:24:40;;;;;;;11.23;5.15;;;;;;;3.49;65.68;102327.91;6251374;22;20335;-83
2023/01/25 10:27:29;;;;;;;10.75;4.53;;;;;;;3.51;65.35;102324.28;6303754;22;20335;-84
2023/01/25 10:29:56;;;;;;;10.52;5.32;;;;;;;3.42;65.81;102307.88;6281252;22;20010;-87
2023/01/25 10:32:33;;;;;;;13.63;5.38;;;;;;;3.61;65.70;102315.84;6257795;22;20011;-84
2023/01/25 10:35:29;;;;;;;12.10;5.45;;;;;;;3.57;64.74;102302.69;6310329;22;20006;-86
2023/01/25 10:38:02;;;;;;;9.95;4.43;;;;;;;3.65;64.78;102309.41;6256661;22;20041;-87
2023/01/25 10:40:32;;;;;;;11.32;5.50;;;;;;;3.68;64.67;102301.31;6283479;22;20042;-86
2023/01/25 10:43:07;;;;;;;9.32;4.57;;;;;;;3.58;64.77;102299.09;6256569;22;20470;-85
2023/01/25 10:45:33;;;;;;;9.45;5.22;;;;;;;3.40;64.99;102292.03;6280926;22;20010;-87
2023/01/25 10:48:03;;;;;;;9.05;4.82;;;;;;;3.41;65.35;102304.38;6281740;22;20369;-84
2023/01/25 10:50:45;;;;;;;12.38;4.93;;;;;;;3.36;65.72;102301.09;6257879;22;20496;-87
2023/01/25 10:53:22;;;;;;;10.93;5.75;;;;;;;3.34;65.66;102292.31;6252419;22;20003;-82
2023/01/25 10:55:59;;;;;;;12.15;5.93;;;;;;;3.23;66.15;102279.56;6310435;22;20031;-84
2023/01/25 10:58:36;;;;;;;13.38;6.65;;;;;;;3.28;65.94;102293.47;6286957;22;19995;-87
2023/01/25 11:01:05;;;;;;;10.52;5.43;;;;;;;3.12;66.22;102265.91;6259183;22;20011;-84
2023/01/25 11:03:44;;;;;;;10.10;4.97;;;;;;;2.88;67.30;102273.22;6263171;22;20105;-80
2023/01/25 11:06:11;;;;;;;10.77;5.57;;;;;;;2.87;67.62;102261.75;6296989;22;20030;-86
2023/01/25 11:08:40;;;;;;;11.93;5.68;;;;;;;2.92;67.58;102272.16;6264602;22;20304;-85
2023/01/25 11:11:37;;;;;;;10.95;5.47;;;;;;;2.80;68.43;102265.63;6298058;22;20420;-89
2023/01/25 11:14:26;;;;;;;9.80;5.40;;;;;;;2.58;69.02;102257.81;6282729;22;20026;-85
2023/01/25 11:16:52;;;;;;;10.30;5.60;;;;;;;2.88;68.80;102254.63;6317701;22;19999;-88
2023/01/25 11:19:37;;;;;;;9.93;4.72;;;;;;;2.79;68.49;102260.41;6294629;22;19999;-85
2023/01/25 11:22:19;;;;;;;14.00;5.57;;;;;;;2.62;69.20;102246.13;6327820;22;20003;-86
2023/01/25 11:24:44;;;;;;;10.77;5.43;;;;;;;2.55;70.14;102252.59;6272999;22;19999;-89
2023/01/25 11:27:17;;;;;;;8.32;4.95;;;;;;;2.50;69.87;102246.66;6322455;22;20411;-88
2023/01/25 11:29:46;;;;;;;11.57;5.50;;;;;;;2.51;69.92;102238.63;6297916;22;20059;-87
2023/01/25 11:32:38;;;;;;;9.23;5.45;;;;;;;2.43;70.45;102219.53;6295242;22;20014;-81
2023/01/25 11:35:15;;;;;;;10.43;5.20;;;;;;;2.50;70.51;102236.03;6284621;22;20026;-83
2023/01/25 11:37:50;;;;;;;10.35;5.70;;;;;;;2.59;70.16;102237.41;6281836;22;20599;-84
2023/01/25 11:40:18;;;;;;;8.90;5.10;;;;;;;2.46;70.77;102230.03;6310087;22;19995;-84
2023/01/25 11:42:59;;;;;;;9.10;4.85;;;;;;;2.48;71.04;102228.16;6310163;22;20054;-88
2023/01/25 11:45:49;;;;;;;10.95;5.35;;;;;;;2.50;71.04;102225.41;6315791;22;19995;-87
2023/01/25 11:48:21;;;;;;;10.90;5.43;;;;;;;2.51;71.63;102222.69;6290910;22;20052;-87
2023/01/25 11:50:59;;;;;;;10.75;5.32;;;;;;;2.27;72.12;102222.03;6315197;22;20045;-87
2023/01/25 11:53:55;;;;;;;11.57;5.95;;;;;;;2.28;72.97;102225.53;6241009;22;20003;-86
2023/01/25 11:56:58;;;;;;;9.23;5.22;;;;;;;2.33;73.62;102234.16;6250556;22;20474;-87
2023/01/25 11:59:49;;;;;;;11.20;6.10;;;;;;;2.23;74.72;102231.06;6250452;22;20341;-87
2023/01/25 12:02:41;;;;;;;16.55;8.75;;;;;;;2.21;75.23;102227.59;6289950;22;20041;-87
2023/01/25 12:05:30;;;;;;;11.50;5.90;;;;;;;2.25;74.72;102217.72;6266199;22;20037;-86
2023/01/25 12:08:17;;;;;;;11.23;5.80;;;;;;;2.05;75.62;102197.38;6317606;22;20014;-87
2023/01/25 12:11:09;;;;;;;12.65;6.15;;;;;;;2.09;75.41;102206.94;6240502;22;20068;-85
2023/01/25 12:14:04;;;;;;;10.63;5.63;;;;;;;2.25;75.51;102205.31;6264440;22;20014;-85
2023/01/25 12:16:53;;;;;;;10.82;5.78;;;;;;;2.19;75.63;102204.72;6284347;22;19991;-86
2023/01/25 12:19:44;;;;;;;13.30;6.07;;;;;;;1.98;76.12;102178.22;6274399;22;20007;-85
2023/01/25 12:22:58;;;;;;;13.13;6.10;;;;;;;2.09;76.36;102194.53;6310378;22;20010;-83
2023/01/25 12:25:45;;;;;;;12.43;6.03;;;;;;;2.07;76.70;102195.53;6217722;22;20011;-84
2023/01/25 12:28:18;;;;;;;10.93;6.15;;;;;;;2.02;76.61;102189.56;6320950;22;20075;-85
2023/01/25 12:31:14;;;;;;;11.82;5.95;;;;;;;1.94;76.45;102199.63;6283790;22;20288;-83
2023/01/25 12:33:58;;;;;;;11.15;5.90;;;;;;;1.84;76.48;102200.03;6307572;22;20053;-84
2023/01/25 12:36:27;;;;;;;12.75;6.40;;;;;;;1.86;77.01;102208.78;6229041;22;19999;-84
2023/01/25 12:38:59;;;;;;;14.70;6.75;;;;;;;1.91;76.83;102205.94;6306300;22;20458;-85
2023/01/25 12:41:27;;;;;;;12.35;6.25;;;;;;;1.87;76.39;102209.66;6281837;22;20211;-85
2023/01/25 12:44:07;;;;;;;13.38;7.03;;;;;;;1.80;77.09;102189.63;6306665;22;20336;-83
2023/01/25 12:46:57;;;;;;;12.32;6.55;;;;;;;1.87;76.59;102199.94;6256434;22;20078;-83
2023/01/25 12:49:41;;;;;;;14.10;6.70;;;;;;;1.87;77.15;102205.22;6266748;22;20014;-83
2023/01/25 12:52:30;;;;;;;12.68;6.75;;;;;;;2.03;77.02;102212.50;6254105;22;19999;-84
2023/01/25 12:54:58;;;;;;;12.27;6.13;;;;;;;1.99;76.32;102202.94;6305564;22;20134;-84
2023/01/25 12:57:36;;;;;;;11.02;6.10;;;;;;;2.09;75.82;102205.13;6252966;22;20090;-82
2023/01/25 13:00:39;;;;;;;12.02;6.05;;;;;;;2.17;75.54;102206.59;6256459;22;21227;-83
2023/01/25 13:03:36;;;;;;;13.50;6.38;;;;;;;2.13;75.55;102211.19;6310015;22;20007;-86
2023/01/25 13:06:20;;;;;;;11.95;6.15;;;;;;;2.07;75.50;102201.69;6250925;22;20103;-80
2023/01/25 13:08:48;;;;;;;14.38;6.88;;;;;;;2.35;75.01;102218.16;6252536;22;20459;-79
2023/01/25 13:11:34;;;;;;;14.38;6.68;;;;;;;2.45;74.82;102211.50;6275438;22;20455;-79
2023/01/25 13:14:15;;;;;;;14.65;6.90;;;;;;;2.46;75.65;102203.47;6251677;22;20023;-84
2023/01/25 13:16:47;;;;;;;15.23;7.38;;;;;;;2.60;74.84;102202.84;6281514;22;19995;-84
2023/01/25 13:19:46;;;;;;;16.52;7.30;;;;;;;2.59;74.60;102197.59;6277939;22;20065;-83
2023/01/25 13:22:12;;;;;;;16.08;7.38;;;;;;;2.62;74.55;102195.66;6298656;22;20086;-84